createdAt,value
2023-03-30T00:01:38.767Z,56.89
2023-03-30T00:04:05.698Z,57.79
2023-03-30T00:06:32.895Z,57.49
2023-03-30T00:09:00.174Z,58.12
2023-03-30T00:11:27.812Z,58.02
2023-03-30T00:13:55.076Z,57.86
2023-03-30T00:16:23.620Z,58.50
2023-03-30T00:18:51.514Z,58.24
2023-03-30T00:21:18.745Z,59.30
2023-03-30T00:23:46.010Z,60.35
2023-03-30T00:26:13.329Z,61.06
2023-03-30T00:28:40.383Z,60.21
2023-03-30T00:31:07.471Z,60.04
2023-03-30T00:33:45.792Z,60.99
2023-03-30T00:36:15.373Z,60.85
2023-03-30T00:38:42.297Z,59.81
2023-03-30T00:41:09.752Z,59.66
2023-03-30T00:43:59.209Z,59.51
2023-03-30T00:46:26.315Z,59.47
2023-03-30T00:48:58.613Z,59.90
2023-03-30T00:51:28.419Z,60.05
2023-03-30T00:54:03.478Z,59.54
2023-03-30T00:56:31.018Z,59.04
2023-03-30T00:58:59.784Z,59.55
2023-03-30T01:01:28.370Z,59.84
2023-03-30T01:04:00.597Z,60.18
2023-03-30T01:06:28.572Z,60.22
2023-03-30T01:08:56.966Z,59.67
2023-03-30T01:11:25.424Z,59.19
2023-03-30T01:13:59.034Z,59.45
2023-03-30T01:16:38.045Z,59.64
2023-03-30T01:19:45.547Z,58.99
2023-03-30T01:22:41.014Z,59.05
2023-03-30T01:25:54.253Z,59.29
2023-03-30T01:28:40.683Z,59.26
2023-03-30T01:31:51.454Z,59.10
2023-03-30T01:34:56.268Z,58.02
2023-03-30T01:38:02.062Z,57.99
2023-03-30T01:40:38.564Z,57.22
2023-03-30T01:43:15.495Z,57.13
2023-03-30T01:45:49.776Z,57.87
2023-03-30T01:48:28.916Z,57.85
2023-03-30T01:51:05.510Z,57.85
2023-03-30T01:53:41.907Z,57.83
2023-03-30T01:56:17.141Z,58.12
2023-03-30T01:58:52.360Z,57.62
2023-03-30T02:01:21.694Z,58.03
2023-03-30T02:03:55.123Z,58.25
2023-03-30T02:06:30.404Z,58.65
2023-03-30T02:09:00.464Z,59.29
2023-03-30T02:11:31.520Z,59.01
2023-03-30T02:14:01.637Z,58.90
2023-03-30T02:16:37.538Z,59.06
2023-03-30T02:19:04.717Z,59.50
2023-03-30T02:21:32.536Z,60.12
2023-03-30T02:24:03.360Z,59.93
2023-03-30T02:26:32.616Z,60.82
2023-03-30T02:29:00.012Z,60.88
2023-03-30T02:31:28.396Z,61.63
2023-03-30T02:34:12.880Z,61.63
2023-03-30T02:37:08.389Z,61.34
2023-03-30T02:39:58.723Z,61.60
2023-03-30T02:42:58.554Z,61.86
2023-03-30T02:45:43.412Z,61.20
2023-03-30T02:48:29.596Z,61.56
2023-03-30T02:51:17.285Z,61.11
2023-03-30T02:54:23.863Z,61.86
2023-03-30T02:57:19.420Z,66.19
2023-03-30T02:59:58.548Z,67.21
2023-03-30T03:02:35.262Z,68.39
2023-03-30T03:05:16.468Z,66.59
2023-03-30T03:08:06.372Z,66.78
2023-03-30T03:10:33.392Z,66.32
2023-03-30T03:13:00.558Z,67.18
2023-03-30T03:15:28.930Z,68.71
2023-03-30T03:18:16.191Z,67.41
2023-03-30T03:20:43.203Z,67.68
2023-03-30T03:23:11.096Z,67.94
2023-03-30T03:25:44.657Z,68.23
2023-03-30T03:28:13.911Z,68.87
2023-03-30T03:30:49.878Z,68.73
2023-03-30T03:33:19.247Z,69.04
2023-03-30T03:35:55.819Z,70.49
2023-03-30T03:38:23.406Z,71.28
2023-03-30T03:40:53.316Z,71.24
2023-03-30T03:43:21.157Z,71.72
2023-03-30T03:45:50.993Z,72.48
2023-03-30T03:48:20.724Z,72.73
2023-03-30T03:50:51.637Z,73.88
2023-03-30T03:53:20.038Z,73.71
2023-03-30T03:55:48.619Z,74.33
2023-03-30T03:58:16.940Z,74.48
2023-03-30T04:00:44.568Z,75.25
2023-03-30T04:03:12.924Z,76.30
2023-03-30T04:05:40.676Z,76.54
2023-03-30T04:08:08.867Z,76.70
2023-03-30T04:10:36.577Z,77.93
2023-03-30T04:13:21.968Z,78.40
2023-03-30T04:16:08.394Z,79.21
2023-03-30T04:18:54.654Z,79.15
2023-03-30T04:21:45.609Z,79.38
2023-03-30T04:24:38.260Z,80.04
2023-03-30T04:27:24.134Z,80.32
2023-03-30T04:30:06.805Z,80.86
2023-03-30T04:32:38.183Z,80.26
2023-03-30T04:35:35.918Z,79.84
2023-03-30T04:38:24.800Z,80.03
2023-03-30T04:41:13.645Z,80.65
2023-03-30T04:44:02.961Z,80.90
2023-03-30T04:46:54.613Z,80.40
2023-03-30T04:49:44.640Z,80.47
2023-03-30T04:52:38.994Z,81.30
2023-03-30T04:55:24.170Z,81.25
2023-03-30T04:58:03.598Z,82.19
2023-03-30T05:00:49.033Z,83.29
2023-03-30T05:03:26.661Z,82.77
2023-03-30T05:06:04.558Z,82.95
2023-03-30T05:08:52.944Z,81.43
2023-03-30T05:11:58.001Z,81.83
2023-03-30T05:14:39.887Z,82.57
2023-03-30T05:17:32.227Z,83.21
2023-03-30T05:20:17.473Z,82.54
2023-03-30T05:23:00.927Z,82.23
2023-03-30T05:25:52.918Z,82.15
2023-03-30T05:28:38.743Z,82.05
2023-03-30T05:31:34.581Z,82.13
2023-03-30T05:34:17.023Z,81.95
2023-03-30T05:37:04.337Z,82.31
2023-03-30T05:39:41.206Z,81.80
2023-03-30T05:42:28.970Z,81.70
2023-03-30T05:45:19.068Z,81.58
2023-03-30T05:48:05.521Z,81.93
2023-03-30T05:50:35.507Z,81.75
2023-03-30T05:53:04.867Z,82.96
2023-03-30T05:55:50.612Z,82.90
2023-03-30T05:58:28.255Z,83.87
2023-03-30T06:01:27.339Z,84.28
2023-03-30T06:03:55.130Z,84.20
2023-03-30T06:06:22.148Z,84.65
2023-03-30T06:08:51.497Z,84.84
2023-03-30T06:11:21.479Z,86.15
2023-03-30T06:13:57.965Z,87.30
2023-03-30T06:16:25.111Z,87.07
2023-03-30T06:18:51.955Z,88.09
2023-03-30T06:21:18.807Z,87.30
2023-03-30T06:23:56.203Z,87.35
2023-03-30T06:26:25.635Z,86.63
2023-03-30T06:28:52.671Z,86.84
2023-03-30T06:31:21.076Z,86.90
2023-03-30T06:33:53.968Z,87.05
2023-03-30T06:36:21.031Z,86.88
2023-03-30T06:39:07.962Z,86.21
2023-03-30T06:41:35.101Z,86.03
2023-03-30T06:44:04.443Z,85.88
2023-03-30T06:46:36.396Z,85.63
2023-03-30T06:49:05.205Z,86.32
2023-03-30T06:51:44.058Z,85.96
2023-03-30T06:54:12.919Z,85.70
2023-03-30T06:56:49.750Z,85.17
2023-03-30T06:59:18.357Z,84.50
2023-03-30T07:02:05.159Z,84.47
2023-03-30T07:04:51.171Z,85.23
2023-03-30T07:07:35.379Z,85.38
2023-03-30T07:10:03.087Z,85.86
2023-03-30T07:12:30.213Z,86.97
2023-03-30T07:14:57.446Z,87.43
2023-03-30T07:17:26.974Z,87.16
2023-03-30T07:19:54.083Z,88.13
2023-03-30T07:22:20.880Z,87.97
2023-03-30T07:24:47.997Z,88.34
2023-03-30T07:27:15.139Z,88.22
2023-03-30T07:29:43.042Z,88.61
2023-03-30T07:32:10.239Z,88.47
2023-03-30T07:34:39.403Z,88.58
2023-03-30T07:37:07.659Z,90.24
2023-03-30T07:39:36.023Z,91.54
2023-03-30T07:42:07.473Z,91.89
2023-03-30T07:44:35.876Z,91.88
2023-03-30T07:47:07.896Z,93.22
2023-03-30T07:49:36.869Z,93.24
2023-03-30T07:52:05.308Z,93.51
2023-03-30T07:54:56.269Z,94.44
2023-03-30T07:57:31.186Z,94.59
2023-03-30T07:59:58.958Z,95.23
2023-03-30T08:02:39.310Z,95.10
2023-03-30T08:05:11.179Z,94.91
2023-03-30T08:08:04.619Z,94.47
2023-03-30T08:10:34.196Z,93.80
2023-03-30T08:13:02.782Z,93.37
2023-03-30T08:15:29.627Z,93.47
2023-03-30T08:17:57.021Z,94.35
2023-03-30T08:20:23.912Z,94.43
2023-03-30T08:22:50.763Z,94.37
2023-03-30T08:25:19.073Z,94.60
2023-03-30T08:27:47.270Z,94.32
2023-03-30T08:30:15.727Z,94.65
2023-03-30T08:32:44.412Z,95.08
2023-03-30T08:35:11.413Z,95.04
2023-03-30T08:37:38.215Z,95.54
2023-03-30T08:40:10.664Z,95.12
2023-03-30T08:43:24.407Z,96.09
2023-03-30T08:45:52.895Z,95.96
2023-03-30T08:48:25.026Z,96.02
2023-03-30T08:50:59.440Z,95.28
2023-03-30T08:53:29.586Z,94.42
2023-03-30T08:56:04.625Z,94.63
2023-03-30T08:58:45.383Z,94.71
2023-03-30T09:01:22.909Z,93.38
2023-03-30T09:04:10.911Z,93.42
2023-03-30T09:06:49.787Z,92.73
2023-03-30T09:09:20.974Z,92.60
2023-03-30T09:11:56.658Z,91.79
2023-03-30T09:14:33.831Z,91.43
2023-03-30T09:17:12.346Z,91.43
2023-03-30T09:19:53.454Z,91.15
2023-03-30T09:22:26.853Z,89.90
2023-03-30T09:24:53.957Z,90.92
2023-03-30T09:27:34.827Z,90.75
2023-03-30T09:30:16.984Z,90.14
2023-03-30T09:32:57.527Z,89.85
2023-03-30T09:35:37.434Z,90.22
2023-03-30T09:38:04.374Z,89.61
2023-03-30T09:40:54.743Z,90.04
2023-03-30T09:43:34.394Z,90.89
2023-03-30T09:46:07.163Z,90.57
2023-03-30T09:48:42.499Z,91.09
2023-03-30T09:51:22.923Z,90.90
2023-03-30T09:53:58.673Z,90.99
2023-03-30T09:56:35.375Z,89.44
2023-03-30T09:59:21.446Z,88.36
2023-03-30T10:01:49.745Z,86.85
2023-03-30T10:04:18.338Z,85.89
2023-03-30T10:06:49.241Z,85.19
2023-03-30T10:09:22.662Z,84.10
2023-03-30T10:11:52.428Z,85.03
2023-03-30T10:14:30.127Z,86.52
2023-03-30T10:17:00.587Z,86.79
2023-03-30T10:19:29.055Z,87.25
2023-03-30T10:21:58.761Z,87.24
2023-03-30T10:24:29.225Z,86.79
2023-03-30T10:27:02.247Z,85.70
2023-03-30T10:29:30.410Z,85.12
2023-03-30T10:32:08.648Z,84.97
2023-03-30T10:34:40.004Z,84.61
2023-03-30T10:37:13.751Z,84.64
2023-03-30T10:39:46.065Z,84.68
2023-03-30T10:42:28.909Z,85.09
2023-03-30T10:45:04.346Z,84.65
2023-03-30T10:48:03.113Z,84.13
2023-03-30T10:51:07.273Z,82.10
2023-03-30T10:53:48.478Z,79.65
2023-03-30T10:56:30.392Z,77.85
2023-03-30T10:59:54.527Z,75.03
2023-03-30T11:02:44.762Z,75.15
2023-03-30T11:05:19.205Z,72.22
2023-03-30T11:07:54.538Z,70.36
2023-03-30T11:10:28.423Z,64.32
2023-03-30T11:13:02.500Z,62.28
2023-03-30T11:15:37.629Z,60.50
2023-03-30T11:18:17.189Z,59.94
2023-03-30T11:20:56.300Z,58.85
2023-03-30T11:23:42.711Z,59.06
2023-03-30T11:26:12.362Z,59.30
2023-03-30T11:29:24.184Z,59.92
2023-03-30T11:32:07.853Z,60.89
2023-03-30T11:34:53.343Z,61.70
2023-03-30T11:37:32.639Z,62.07
2023-03-30T11:40:14.629Z,62.94
2023-03-30T11:42:42.172Z,62.51
2023-03-30T11:45:31.421Z,63.52
2023-03-30T11:48:20.090Z,63.10
2023-03-30T11:51:10.972Z,63.40
2023-03-30T11:53:53.788Z,61.77
2023-03-30T11:56:37.680Z,60.02
2023-03-30T11:59:09.239Z,59.35
2023-03-30T12:02:09.701Z,56.39
2023-03-30T12:04:47.592Z,56.35
2023-03-30T12:07:35.278Z,55.81
2023-03-30T12:10:10.270Z,56.50
2023-03-30T12:12:40.739Z,54.38
2023-03-30T12:15:35.652Z,55.78
2023-03-30T12:18:17.606Z,55.08
2023-03-30T12:20:55.602Z,54.43
2023-03-30T12:23:37.770Z,54.88
2023-03-30T12:26:25.926Z,54.74
2023-03-30T12:32:05.400Z,52.61
2023-03-30T12:34:34.780Z,51.73
2023-03-30T12:37:07.563Z,52.28
2023-03-30T12:39:41.575Z,53.00
2023-03-30T12:42:22.808Z,52.42
2023-03-30T12:45:19.345Z,52.74
2023-03-30T12:48:11.733Z,53.30
2023-03-30T12:50:58.911Z,52.70
2023-03-30T12:53:55.333Z,52.98
2023-03-30T12:56:37.206Z,53.51
2023-03-30T12:59:47.594Z,54.15
2023-03-30T13:02:50.093Z,54.82
2023-03-30T13:05:20.409Z,54.56
2023-03-30T13:07:51.388Z,54.83
2023-03-30T13:10:41.958Z,55.31
2023-03-30T13:13:23.948Z,57.10
2023-03-30T13:15:54.776Z,59.25
2023-03-30T13:18:51.451Z,58.06
2023-03-30T13:21:23.512Z,58.37
2023-03-30T13:24:21.276Z,58.51
2023-03-30T13:26:49.540Z,58.21
2023-03-30T13:29:17.892Z,58.16
2023-03-30T13:32:18.187Z,58.74
2023-03-30T13:35:07.354Z,59.15
2023-03-30T13:38:05.803Z,57.77
2023-03-30T13:40:57.928Z,55.18
2023-03-30T13:43:55.877Z,52.84
2023-03-30T13:46:35.659Z,53.58
2023-03-30T13:49:22.147Z,55.31
2023-03-30T13:51:49.740Z,55.81
2023-03-30T13:54:21.822Z,56.42
2023-03-30T13:56:59.128Z,56.72
2023-03-30T13:59:32.664Z,57.45
2023-03-30T14:02:03.323Z,57.19
2023-03-30T14:04:34.467Z,56.28
2023-03-30T14:07:11.469Z,55.92
2023-03-30T14:09:38.552Z,55.53
2023-03-30T14:12:07.467Z,55.20
2023-03-30T14:14:38.605Z,55.79
2023-03-30T14:17:19.528Z,55.76
2023-03-30T14:20:06.934Z,56.58
2023-03-30T14:22:42.041Z,57.25
2023-03-30T14:25:27.129Z,57.92
2023-03-30T14:27:57.124Z,58.03
2023-03-30T14:30:28.100Z,58.23
2023-03-30T14:33:08.937Z,58.59
2023-03-30T14:35:44.010Z,58.72
2023-03-30T14:38:17.918Z,59.42
2023-03-30T14:40:45.408Z,60.14
2023-03-30T14:43:15.684Z,60.17
2023-03-30T14:45:43.885Z,60.81
2023-03-30T14:48:24.842Z,60.84
2023-03-30T14:50:51.767Z,60.06
2023-03-30T14:53:26.069Z,59.27
2023-03-30T14:55:57.955Z,58.48
2023-03-30T14:58:29.927Z,57.81
2023-03-30T15:01:02.044Z,57.21
2023-03-30T15:03:35.042Z,57.33
2023-03-30T15:06:04.569Z,57.13
2023-03-30T15:08:37.435Z,57.19
2023-03-30T15:11:11.569Z,57.46
2023-03-30T15:13:44.302Z,57.75
2023-03-30T15:16:18.235Z,57.48
2023-03-30T15:18:47.077Z,56.69
2023-03-30T15:21:14.645Z,56.70
2023-03-30T15:23:45.634Z,56.77
2023-03-30T15:26:14.708Z,57.29
2023-03-30T15:28:47.755Z,56.35
2023-03-30T15:31:15.814Z,55.96
2023-03-30T15:33:50.265Z,56.53
2023-03-30T15:36:20.649Z,56.57
2023-03-30T15:38:50.843Z,57.30
2023-03-30T15:41:21.665Z,56.91
2023-03-30T15:43:56.441Z,57.46
2023-03-30T15:46:25.022Z,57.03
2023-03-30T15:48:54.674Z,57.28
2023-03-30T15:51:29.176Z,56.58
2023-03-30T15:54:02.205Z,56.18
2023-03-30T15:56:37.008Z,56.54
2023-03-30T15:59:05.100Z,56.71
2023-03-30T16:01:43.891Z,56.57
2023-03-30T16:04:15.737Z,56.68
2023-03-30T16:06:44.585Z,57.32
2023-03-30T16:09:13.119Z,58.98
2023-03-30T16:11:40.566Z,58.60
2023-03-30T16:14:14.097Z,58.49
2023-03-30T16:16:41.173Z,55.95
2023-03-30T16:19:13.875Z,56.61
2023-03-30T16:21:42.011Z,55.70
2023-03-30T16:24:10.243Z,53.96
2023-03-30T16:26:37.602Z,54.26
2023-03-30T16:29:04.549Z,54.56
2023-03-30T16:31:34.289Z,54.24
2023-03-30T16:34:01.278Z,54.82
2023-03-30T16:36:29.503Z,54.67
2023-03-30T16:38:56.558Z,55.40
2023-03-30T16:41:23.660Z,54.95
2023-03-30T16:43:50.409Z,54.93
2023-03-30T16:46:21.059Z,55.34
2023-03-30T16:48:48.124Z,55.24
2023-03-30T16:51:15.801Z,55.12
2023-03-30T16:53:44.112Z,55.59
2023-03-30T16:56:17.749Z,55.81
2023-03-30T16:58:46.226Z,56.02
2023-03-30T17:01:15.361Z,56.50
2023-03-30T17:03:42.649Z,56.63
2023-03-30T17:06:09.653Z,56.23
2023-03-30T17:08:36.724Z,56.79
2023-03-30T17:11:05.461Z,57.05
2023-03-30T17:13:33.048Z,56.46
2023-03-30T17:16:00.353Z,56.65
2023-03-30T17:18:27.380Z,57.35
2023-03-30T17:20:56.087Z,57.57
2023-03-30T17:23:25.679Z,57.56
2023-03-30T17:25:54.068Z,57.65
2023-03-30T17:28:25.090Z,58.25
2023-03-30T17:30:54.903Z,58.24
2023-03-30T17:33:22.618Z,57.93
2023-03-30T17:35:54.498Z,58.27
2023-03-30T17:38:22.026Z,58.32
2023-03-30T17:40:49.244Z,58.60
2023-03-30T17:43:16.416Z,58.61
2023-03-30T17:45:45.466Z,59.35
2023-03-30T17:48:15.641Z,59.46
2023-03-30T17:50:45.223Z,59.86
2023-03-30T17:53:14.227Z,60.01
2023-03-30T17:55:41.267Z,59.96
2023-03-30T17:58:16.077Z,60.08
2023-03-30T18:00:45.062Z,59.71
2023-03-30T18:03:12.170Z,60.05
2023-03-30T18:05:39.206Z,59.56
2023-03-30T18:08:06.072Z,59.47
2023-03-30T18:10:37.876Z,59.72
2023-03-30T18:13:06.642Z,60.23
2023-03-30T18:15:34.732Z,60.95
2023-03-30T18:18:03.842Z,62.03
2023-03-30T18:20:34.258Z,62.87
2023-03-30T18:23:01.015Z,62.91
2023-03-30T18:25:32.654Z,62.76
2023-03-30T18:28:04.529Z,63.36
2023-03-30T18:30:50.590Z,63.98
2023-03-30T18:37:50.475Z,64.60
2023-03-30T18:40:36.562Z,64.68
2023-03-30T18:47:45.267Z,66.41
2023-03-30T18:50:54.987Z,67.05
2023-03-30T18:53:25.777Z,67.04
2023-03-30T18:55:56.006Z,67.00
2023-03-30T18:58:26.537Z,66.83
2023-03-30T19:00:55.168Z,67.23
2023-03-30T19:03:23.966Z,67.01
2023-03-30T19:05:51.802Z,67.13
2023-03-30T19:08:21.259Z,67.60
2023-03-30T19:10:52.297Z,68.47
2023-03-30T19:13:21.326Z,67.77
2023-03-30T19:15:51.400Z,67.63
2023-03-30T19:18:19.429Z,67.34
2023-03-30T19:20:47.018Z,67.18
2023-03-30T19:23:16.212Z,67.14
2023-03-30T19:25:44.684Z,67.56
2023-03-30T19:28:14.204Z,67.65
2023-03-30T19:30:41.473Z,67.99
2023-03-30T19:33:12.297Z,68.75
2023-03-30T19:35:41.647Z,68.44
2023-03-30T19:38:09.062Z,67.91
2023-03-30T19:40:37.275Z,68.11
2023-03-30T19:43:04.268Z,67.54
2023-03-30T19:45:32.461Z,67.85
2023-03-30T19:47:59.566Z,67.83
2023-03-30T19:50:29.484Z,68.15
2023-03-30T19:52:58.099Z,68.33
2023-03-30T19:55:25.320Z,68.57
2023-03-30T19:57:52.108Z,69.34
2023-03-30T20:00:19.563Z,69.04
2023-03-30T20:02:51.296Z,69.08
2023-03-30T20:05:20.745Z,69.11
2023-03-30T20:07:49.168Z,69.39
2023-03-30T20:10:19.478Z,69.16
2023-03-30T20:12:47.124Z,69.47
2023-03-30T20:15:15.340Z,69.79
2023-03-30T20:17:42.761Z,69.14
2023-03-30T20:20:14.863Z,69.20
2023-03-30T20:22:44.246Z,68.89
2023-03-30T20:25:13.824Z,68.78
2023-03-30T20:27:41.140Z,68.51
2023-03-30T20:30:09.970Z,68.53
2023-03-30T20:32:37.188Z,68.38
2023-03-30T20:35:05.746Z,69.00
2023-03-30T20:37:34.326Z,68.87
2023-03-30T20:40:03.371Z,68.47
2023-03-30T20:42:31.507Z,68.22
2023-03-30T20:44:58.698Z,68.36
2023-03-30T20:47:25.749Z,68.82
2023-03-30T20:49:52.917Z,68.11
2023-03-30T20:52:20.256Z,68.79
2023-03-30T20:54:48.433Z,69.98
2023-03-30T20:57:15.501Z,70.01
2023-03-30T20:59:42.523Z,70.61
2023-03-30T21:02:11.554Z,70.98
2023-03-30T21:04:38.498Z,70.49
2023-03-30T21:07:05.932Z,70.37
2023-03-30T21:09:32.889Z,69.49
2023-03-30T21:12:01.021Z,70.72
2023-03-30T21:14:27.850Z,71.30
2023-03-30T21:16:55.087Z,71.21
2023-03-30T21:19:22.203Z,73.37
2023-03-30T21:21:49.001Z,71.40
2023-03-30T21:24:15.949Z,71.86
2023-03-30T21:26:43.039Z,71.80
2023-03-30T21:29:11.657Z,71.88
2023-03-30T21:31:38.483Z,71.73
2023-03-30T21:34:05.632Z,72.05
2023-03-30T21:36:33.140Z,72.25
2023-03-30T21:38:59.967Z,72.34
2023-03-30T21:41:27.479Z,72.13
2023-03-30T21:43:54.834Z,72.00
2023-03-30T21:46:25.565Z,71.81
2023-03-30T21:48:54.221Z,72.79
2023-03-30T21:51:23.950Z,71.93
2023-03-30T21:53:52.940Z,72.49
2023-03-30T21:56:23.882Z,72.16
2023-03-30T21:58:52.009Z,71.78
2023-03-30T22:01:20.992Z,72.02
2023-03-30T22:03:49.475Z,71.94
2023-03-30T22:06:17.554Z,71.80
2023-03-30T22:08:46.298Z,71.34
2023-03-30T22:11:16.658Z,71.21
2023-03-30T22:13:44.345Z,71.37
2023-03-30T22:16:16.067Z,71.79
2023-03-30T22:18:44.042Z,71.36
2023-03-30T22:21:15.868Z,71.67
2023-03-30T22:23:43.153Z,71.63
2023-03-30T22:26:11.233Z,71.67
2023-03-30T22:28:38.283Z,71.81
2023-03-30T22:31:07.261Z,71.79
2023-03-30T22:33:34.904Z,71.38
2023-03-30T22:36:02.199Z,71.29
2023-03-30T22:38:31.434Z,71.37
2023-03-30T22:41:05.417Z,71.22
2023-03-30T22:43:34.469Z,70.75
2023-03-30T22:46:01.690Z,71.58
2023-03-30T22:48:28.827Z,70.58
2023-03-30T22:50:55.623Z,69.77
2023-03-30T22:53:22.505Z,69.92
2023-03-30T22:55:50.722Z,69.72
2023-03-30T22:58:17.595Z,69.26
2023-03-30T23:00:44.699Z,69.11
2023-03-30T23:03:12.063Z,69.18
2023-03-30T23:05:39.108Z,69.35
2023-03-30T23:08:06.146Z,69.48
2023-03-30T23:10:32.968Z,70.87
2023-03-30T23:13:01.146Z,72.06
2023-03-30T23:15:28.036Z,73.59
2023-03-30T23:17:54.933Z,73.42
2023-03-30T23:20:21.810Z,74.19
2023-03-30T23:22:49.827Z,73.19
2023-03-30T23:25:16.909Z,73.98
2023-03-30T23:27:44.045Z,74.13
2023-03-30T23:30:13.835Z,73.36
2023-03-30T23:32:40.674Z,73.64
2023-03-30T23:35:08.520Z,72.83
2023-03-30T23:37:35.281Z,73.39
2023-03-30T23:40:02.359Z,73.41
2023-03-30T23:42:29.291Z,72.32
2023-03-30T23:44:56.201Z,71.49
2023-03-30T23:47:24.749Z,70.35
2023-03-30T23:49:51.530Z,70.81
2023-03-30T23:52:18.494Z,71.04
2023-03-30T23:54:45.237Z,71.12
2023-03-30T23:57:12.247Z,70.90
2023-03-30T23:59:39.144Z,71.89
